createdAt,value
2023-05-21T00:02:29.990Z,100413.81
2023-05-21T00:04:58.378Z,100412.19
2023-05-21T00:07:27.173Z,100409.53
2023-05-21T00:09:55.793Z,100414.09
2023-05-21T00:12:24.181Z,100401.75
2023-05-21T00:14:52.843Z,100405.38
2023-05-21T00:17:21.065Z,100403.69
2023-05-21T00:19:51.814Z,100399.22
2023-05-21T00:22:21.007Z,100393.25
2023-05-21T00:24:49.200Z,100401.25
2023-05-21T00:27:17.846Z,100391.63
2023-05-21T00:29:46.690Z,100386.38
2023-05-21T00:32:15.279Z,100386.38
2023-05-21T00:34:44.330Z,100378.53
2023-05-21T00:37:15.287Z,100383.72
2023-05-21T00:39:43.934Z,100380.34
2023-05-21T00:42:12.464Z,100376.91
2023-05-21T00:44:41.313Z,100371.69
2023-05-21T00:47:09.887Z,100373.41
2023-05-21T00:49:38.478Z,100379.72
2023-05-21T00:52:07.839Z,100376.13
2023-05-21T00:54:37.574Z,100375.28
2023-05-21T00:57:06.871Z,100374.59
2023-05-21T00:59:35.640Z,100373.81
2023-05-21T01:02:06.687Z,100378.16
2023-05-21T01:04:35.501Z,100371.34
2023-05-21T01:07:04.082Z,100374.94
2023-05-21T01:09:33.023Z,100376.81
2023-05-21T01:12:04.172Z,100365.38
2023-05-21T01:14:34.705Z,100362.03
2023-05-21T01:17:05.716Z,100366.56
2023-05-21T01:19:35.478Z,100363.13
2023-05-21T01:22:07.164Z,100361.44
2023-05-21T01:24:37.549Z,100355.44
2023-05-21T01:27:07.730Z,100352.88
2023-05-21T01:29:36.529Z,100361.78
2023-05-21T01:32:13.335Z,100352.88
2023-05-21T01:34:49.124Z,100356.47
2023-05-21T01:37:23.754Z,100346.03
2023-05-21T01:39:56.942Z,100342.63
2023-05-21T01:42:26.425Z,100348.91
2023-05-21T01:44:58.217Z,100342.75
2023-05-21T01:47:30.874Z,100337.63
2023-05-21T01:50:00.473Z,100333.44
2023-05-21T01:52:29.402Z,100333.63
2023-05-21T01:55:00.378Z,100338.91
2023-05-21T01:57:29.135Z,100335.50
2023-05-21T01:59:58.738Z,100333.78
2023-05-21T02:02:27.470Z,100336.59
2023-05-21T02:04:56.124Z,100328.66
2023-05-21T02:07:24.845Z,100335.75
2023-05-21T02:09:53.385Z,100334.88
2023-05-21T02:12:23.092Z,100334.03
2023-05-21T02:14:51.924Z,100328.03
2023-05-21T02:17:21.800Z,100324.56
2023-05-21T02:19:50.341Z,100327.19
2023-05-21T02:22:18.825Z,100324.63
2023-05-21T02:24:47.608Z,100333.50
2023-05-21T02:27:17.723Z,100329.16
2023-05-21T02:29:47.329Z,100328.22
2023-05-21T02:32:16.865Z,100330.09
2023-05-21T02:34:47.299Z,100327.44
2023-05-21T02:37:15.982Z,100324.78
2023-05-21T02:39:44.622Z,100327.53
2023-05-21T02:42:13.356Z,100329.34
2023-05-21T02:44:42.101Z,100324.94
2023-05-21T02:47:12.635Z,100324.94
2023-05-21T02:49:41.415Z,100326.84
2023-05-21T02:52:10.677Z,100321.56
2023-05-21T02:54:39.373Z,100331.25
2023-05-21T02:57:07.931Z,100324.19
2023-05-21T02:59:36.450Z,100322.47
2023-05-21T03:02:05.150Z,100319.81
2023-05-21T03:04:39.282Z,100318.91
2023-05-21T03:07:10.103Z,100328.53
2023-05-21T03:09:38.737Z,100321.56
2023-05-21T03:12:07.718Z,100318.97
2023-05-21T03:14:36.419Z,100318.13
2023-05-21T03:17:06.120Z,100313.69
2023-05-21T03:19:37.411Z,100316.25
2023-05-21T03:22:07.649Z,100309.22
2023-05-21T03:24:38.677Z,100312.72
2023-05-21T03:27:08.436Z,100319.75
2023-05-21T03:29:37.583Z,100313.69
2023-05-21T03:32:08.368Z,100312.81
2023-05-21T03:34:38.489Z,100311.88
2023-05-21T03:37:07.334Z,100316.44
2023-05-21T03:39:36.325Z,100309.41
2023-05-21T03:42:04.861Z,100307.69
2023-05-21T03:44:41.132Z,100312.16
2023-05-21T03:47:27.830Z,100308.66
2023-05-21T03:49:57.633Z,100302.41
2023-05-21T03:52:26.206Z,100319.06
2023-05-21T03:54:54.883Z,100312.81
2023-05-21T03:57:23.538Z,100305.84
2023-05-21T03:59:52.257Z,100313.78
2023-05-21T04:02:22.338Z,100317.19
2023-05-21T04:04:51.778Z,100310.97
2023-05-21T04:07:22.321Z,100312.66
2023-05-21T04:09:50.944Z,100323.25
2023-05-21T04:12:21.147Z,100314.38
2023-05-21T04:14:49.750Z,100319.66
2023-05-21T04:17:19.167Z,100310.78
2023-05-21T04:19:47.888Z,100317.78
2023-05-21T04:22:16.630Z,100318.63
2023-05-21T04:24:48.794Z,100318.47
2023-05-21T04:27:23.601Z,100319.50
2023-05-21T04:29:54.942Z,100315.03
2023-05-21T04:32:25.981Z,100324.78
2023-05-21T04:34:54.334Z,100326.50
2023-05-21T04:37:24.546Z,100326.50
2023-05-21T04:39:55.696Z,100317.63
2023-05-21T04:42:24.899Z,100326.50
2023-05-21T04:44:55.495Z,100320.34
2023-05-21T04:47:25.373Z,100322.91
2023-05-21T04:49:54.633Z,100324.72
2023-05-21T04:52:25.078Z,100329.06
2023-05-21T04:54:55.018Z,100326.34
2023-05-21T04:57:24.518Z,100329.00
2023-05-21T04:59:53.220Z,100325.34
2023-05-21T05:02:21.875Z,100334.03
2023-05-21T05:04:50.437Z,100334.69
2023-05-21T05:07:19.194Z,100334.53
2023-05-21T05:09:48.718Z,100335.31
2023-05-21T05:12:18.452Z,100332.50
2023-05-21T05:14:47.766Z,100330.69
2023-05-21T05:17:16.404Z,100346.41
2023-05-21T05:19:45.521Z,100337.47
2023-05-21T05:22:13.826Z,100333.88
2023-05-21T05:24:43.798Z,100340.75
2023-05-21T05:27:12.382Z,100332.63
2023-05-21T05:29:42.008Z,100338.72
2023-05-21T05:32:10.561Z,100335.09
2023-05-21T05:34:39.388Z,100328.78
2023-05-21T05:37:07.947Z,100335.72
2023-05-21T05:39:36.622Z,100334.59
2023-05-21T05:42:05.768Z,100339.72
2023-05-21T05:44:34.433Z,100335.94
2023-05-21T05:47:09.127Z,100335.78
2023-05-21T05:49:37.697Z,100337.50
2023-05-21T05:52:07.151Z,100337.41
2023-05-21T05:54:35.946Z,100332.09
2023-05-21T05:57:04.676Z,100334.56
2023-05-21T05:59:33.839Z,100331.84
2023-05-21T06:02:04.826Z,100338.84
2023-05-21T06:04:33.453Z,100335.09
2023-05-21T06:07:02.480Z,100338.50
2023-05-21T06:09:31.282Z,100333.97
2023-05-21T06:11:59.650Z,100338.31
2023-05-21T06:14:28.281Z,100345.19
2023-05-21T06:16:56.921Z,100339.69
2023-05-21T06:19:28.806Z,100345.69
2023-05-21T06:21:57.809Z,100344.66
2023-05-21T06:24:27.785Z,100346.00
2023-05-21T06:26:56.446Z,100349.97
2023-05-21T06:29:25.114Z,100345.75
2023-05-21T06:31:53.543Z,100348.75
2023-05-21T06:34:22.419Z,100344.44
2023-05-21T06:36:52.551Z,100347.13
2023-05-21T06:39:21.014Z,100336.53
2023-05-21T06:41:50.351Z,100349.13
2023-05-21T06:44:41.430Z,100350.94
2023-05-21T06:47:25.591Z,100345.06
2023-05-21T06:49:54.300Z,100345.63
2023-05-21T06:52:24.528Z,100349.59
2023-05-21T06:54:53.258Z,100349.22
2023-05-21T06:57:22.141Z,100355.72
2023-05-21T06:59:50.856Z,100349.03
2023-05-21T07:02:19.469Z,100346.44
2023-05-21T07:04:48.330Z,100349.16
2023-05-21T07:07:16.849Z,100354.63
2023-05-21T07:09:46.570Z,100347.47
2023-05-21T07:12:15.186Z,100358.34
2023-05-21T07:14:43.746Z,100350.63
2023-05-21T07:17:12.401Z,100355.88
2023-05-21T07:19:40.713Z,100347.81
2023-05-21T07:22:09.290Z,100347.53
2023-05-21T07:24:37.858Z,100363.19
2023-05-21T07:27:17.678Z,100351.88
2023-05-21T07:29:53.878Z,100339.06
2023-05-21T07:32:23.183Z,100339.03
2023-05-21T07:34:53.541Z,100338.94
2023-05-21T07:37:23.437Z,100340.97
2023-05-21T07:39:52.035Z,100338.28
2023-05-21T07:42:21.804Z,100334.28
2023-05-21T07:44:50.435Z,100329.22
2023-05-21T07:47:19.235Z,100328.44
2023-05-21T07:49:47.556Z,100324.75
2023-05-21T07:52:16.209Z,100328.06
2023-05-21T07:54:44.971Z,100321.75
2023-05-21T07:57:13.561Z,100324.28
2023-05-21T08:00:07.429Z,100323.94
2023-05-21T08:02:43.844Z,100326.22
2023-05-21T08:05:16.256Z,100321.06
2023-05-21T08:07:46.280Z,100324.81
2023-05-21T08:10:15.732Z,100312.13
2023-05-21T08:12:46.087Z,100312.03
2023-05-21T08:15:15.705Z,100317.94
2023-05-21T08:17:46.928Z,100313.41
2023-05-21T08:20:16.137Z,100307.03
2023-05-21T08:22:46.902Z,100309.78
2023-05-21T08:25:15.526Z,100306.13
2023-05-21T08:27:44.131Z,100308.81
2023-05-21T08:30:13.385Z,100302.09
2023-05-21T08:32:43.441Z,100305.53
2023-05-21T08:35:12.414Z,100300.50
2023-05-21T08:37:57.492Z,100293.97
2023-05-21T08:40:44.354Z,100295.69
2023-05-21T08:43:15.726Z,100303.63
2023-05-21T08:45:53.553Z,100301.78
2023-05-21T08:48:24.493Z,100294.22
2023-05-21T08:50:54.664Z,100293.91
2023-05-21T08:53:29.317Z,100296.97
2023-05-21T08:55:59.101Z,100288.34
2023-05-21T08:58:48.225Z,100289.84
2023-05-21T09:01:21.567Z,100299.38
2023-05-21T09:04:12.238Z,100294.78
2023-05-21T09:06:48.849Z,100297.13
2023-05-21T09:09:33.618Z,100293.56
2023-05-21T09:12:02.600Z,100287.34
2023-05-21T09:14:32.585Z,100291.91
2023-05-21T09:17:09.952Z,100281.44
2023-05-21T09:19:40.128Z,100289.16
2023-05-21T09:22:08.853Z,100292.91
2023-05-21T09:24:37.534Z,100290.03
2023-05-21T09:27:08.514Z,100291.88
2023-05-21T09:29:37.462Z,100293.19
2023-05-21T09:32:12.213Z,100296.91
2023-05-21T09:34:42.875Z,100290.31
2023-05-21T09:37:23.828Z,100281.19
2023-05-21T09:39:56.368Z,100283.06
2023-05-21T09:42:25.034Z,100281.34
2023-05-21T09:44:53.786Z,100278.16
2023-05-21T09:47:22.552Z,100289.47
2023-05-21T09:49:52.242Z,100280.38
2023-05-21T09:52:28.213Z,100279.78
2023-05-21T09:54:56.821Z,100281.63
2023-05-21T09:57:26.716Z,100281.44
2023-05-21T09:59:56.328Z,100283.84
2023-05-21T10:02:26.787Z,100280.94
2023-05-21T10:04:57.905Z,100286.00
2023-05-21T10:07:28.240Z,100287.34
2023-05-21T10:09:58.495Z,100275.44
2023-05-21T10:12:28.823Z,100268.94
2023-05-21T10:15:02.574Z,100276.94
2023-05-21T10:17:32.005Z,100275.56
2023-05-21T10:20:03.423Z,100267.06
2023-05-21T10:22:32.178Z,100260.56
2023-05-21T10:25:03.335Z,100269.22
2023-05-21T10:27:32.694Z,100264.28
2023-05-21T10:30:01.766Z,100260.16
2023-05-21T10:32:31.358Z,100260.63
2023-05-21T10:35:02.701Z,100261.44
2023-05-21T10:37:31.577Z,100262.53
2023-05-21T10:39:59.816Z,100254.38
2023-05-21T10:43:10.853Z,100256.47
2023-05-21T10:46:10.564Z,100258.81
2023-05-21T10:48:58.111Z,100248.19
2023-05-21T10:51:30.509Z,100248.34
2023-05-21T10:54:52.841Z,100243.81
2023-05-21T10:57:46.107Z,100250.09
2023-05-21T11:00:20.426Z,100245.47
2023-05-21T11:02:49.347Z,100243.09
2023-05-21T11:05:17.816Z,100243.09
2023-05-21T11:07:57.639Z,100236.00
2023-05-21T11:10:44.388Z,100235.59
2023-05-21T11:13:14.665Z,100235.63
2023-05-21T11:16:08.841Z,100236.06
2023-05-21T11:19:03.473Z,100227.88
2023-05-21T11:21:35.119Z,100229.78
2023-05-21T11:24:08.677Z,100219.75
2023-05-21T11:27:04.641Z,100223.13
2023-05-21T11:29:44.698Z,100222.69
2023-05-21T11:32:20.588Z,100219.31
2023-05-21T11:34:49.497Z,100212.97
2023-05-21T11:37:34.685Z,100218.78
2023-05-21T11:40:26.755Z,100209.03
2023-05-21T11:42:57.258Z,100204.50
2023-05-21T11:45:32.259Z,100213.50
2023-05-21T11:48:01.806Z,100210.03
2023-05-21T11:50:33.709Z,100210.03
2023-05-21T11:53:03.179Z,100202.22
2023-05-21T11:55:33.139Z,100212.88
2023-05-21T11:58:02.245Z,100209.72
2023-05-21T12:00:30.994Z,100205.19
2023-05-21T12:02:59.412Z,100201.81
2023-05-21T12:05:28.138Z,100195.06
2023-05-21T12:07:58.331Z,100207.59
2023-05-21T12:10:27.171Z,100194.47
2023-05-21T12:12:57.466Z,100202.00
2023-05-21T12:15:27.882Z,100202.22
2023-05-21T12:17:57.175Z,100202.22
2023-05-21T12:20:28.899Z,100199.56
2023-05-21T12:22:59.890Z,100194.28
2023-05-21T12:25:29.878Z,100191.13
2023-05-21T12:28:01.899Z,100193.59
2023-05-21T12:30:30.836Z,100186.41
2023-05-21T12:33:02.122Z,100192.28
2023-05-21T12:35:32.559Z,100196.09
2023-05-21T12:38:03.477Z,100188.00
2023-05-21T12:40:39.600Z,100186.06
2023-05-21T12:43:10.094Z,100184.09
2023-05-21T12:45:40.580Z,100174.16
2023-05-21T12:48:09.670Z,100180.88
2023-05-21T12:50:41.627Z,100182.63
2023-05-21T12:53:11.932Z,100184.06
2023-05-21T12:55:41.122Z,100177.59
2023-05-21T12:58:15.384Z,100177.03
2023-05-21T13:00:45.410Z,100175.13
2023-05-21T13:03:14.400Z,100175.19
2023-05-21T13:05:43.173Z,100180.13
2023-05-21T13:08:14.082Z,100177.38
2023-05-21T13:10:42.802Z,100179.75
2023-05-21T13:13:12.512Z,100168.34
2023-05-21T13:15:41.029Z,100178.84
2023-05-21T13:18:09.873Z,100174.91
2023-05-21T13:20:38.948Z,100173.81
2023-05-21T13:23:09.769Z,100172.22
2023-05-21T13:25:39.965Z,100176.53
2023-05-21T13:28:10.317Z,100172.63
2023-05-21T13:30:40.056Z,100165.38
2023-05-21T13:33:08.674Z,100162.00
2023-05-21T13:35:37.568Z,100161.16
2023-05-21T13:38:05.882Z,100171.22
2023-05-21T13:40:36.561Z,100169.59
2023-05-21T13:43:06.779Z,100172.50
2023-05-21T13:45:35.738Z,100173.97
2023-05-21T13:48:06.448Z,100177.28
2023-05-21T13:50:35.205Z,100175.66
2023-05-21T13:53:03.610Z,100181.34
2023-05-21T13:55:31.928Z,100166.00
2023-05-21T13:58:00.161Z,100175.47
2023-05-21T14:00:28.455Z,100167.06
2023-05-21T14:02:57.228Z,100172.53
2023-05-21T14:05:26.938Z,100169.16
2023-05-21T14:07:55.519Z,100175.91
2023-05-21T14:10:23.996Z,100170.63
2023-05-21T14:12:52.622Z,100165.78
2023-05-21T14:15:21.045Z,100169.72
2023-05-21T14:17:49.642Z,100165.47
2023-05-21T14:20:18.294Z,100161.50
2023-05-21T14:22:47.850Z,100158.38
2023-05-21T14:25:16.170Z,100160.91
2023-05-21T14:27:44.455Z,100162.56
2023-05-21T14:30:13.466Z,100161.25
2023-05-21T14:32:42.184Z,100156.59
2023-05-21T14:35:10.873Z,100171.56
2023-05-21T14:37:39.508Z,100167.72
2023-05-21T14:40:10.990Z,100164.75
2023-05-21T14:42:39.615Z,100166.53
2023-05-21T14:45:18.624Z,100169.97
2023-05-21T14:47:48.797Z,100159.19
2023-05-21T14:50:18.434Z,100162.84
2023-05-21T14:52:47.187Z,100161.97
2023-05-21T14:55:18.443Z,100162.53
2023-05-21T14:57:47.075Z,100155.44
2023-05-21T15:00:16.134Z,100156.63
2023-05-21T15:02:45.012Z,100158.72
2023-05-21T15:05:13.667Z,100161.19
2023-05-21T15:07:42.018Z,100149.78
2023-05-21T15:10:11.545Z,100151.59
2023-05-21T15:12:42.097Z,100148.00
2023-05-21T15:15:12.242Z,100139.56
2023-05-21T15:17:41.267Z,100142.69
2023-05-21T15:20:10.787Z,100139.69
2023-05-21T15:22:39.847Z,100147.78
2023-05-21T15:25:09.551Z,100132.31
2023-05-21T15:27:37.812Z,100141.47
2023-05-21T15:30:09.111Z,100141.13
2023-05-21T15:32:37.895Z,100144.88
2023-05-21T15:35:07.331Z,100136.44
2023-05-21T15:37:35.847Z,100139.34
2023-05-21T15:40:05.114Z,100134.38
2023-05-21T15:42:33.781Z,100136.34
2023-05-21T15:45:02.515Z,100127.81
2023-05-21T15:47:32.305Z,100138.28
2023-05-21T15:50:01.329Z,100129.75
2023-05-21T15:52:29.887Z,100122.22
2023-05-21T15:54:58.426Z,100132.91
2023-05-21T15:57:27.044Z,100129.59
2023-05-21T15:59:56.004Z,100130.25
2023-05-21T16:02:24.634Z,100126.31
2023-05-21T16:04:54.285Z,100130.09
2023-05-21T16:07:25.143Z,100136.75
2023-05-21T16:09:53.767Z,100145.91
2023-05-21T16:12:23.327Z,100134.66
2023-05-21T16:14:51.750Z,100143.06
2023-05-21T16:17:20.573Z,100141.50
2023-05-21T16:19:49.206Z,100133.88
2023-05-21T16:22:20.282Z,100129.22
2023-05-21T16:24:49.080Z,100129.03
2023-05-21T16:27:17.680Z,100131.47
2023-05-21T16:29:46.370Z,100117.81
2023-05-21T16:32:15.016Z,100133.00
2023-05-21T16:34:43.812Z,100127.00
2023-05-21T16:37:12.685Z,100126.47
2023-05-21T16:39:42.386Z,100132.78
2023-05-21T16:42:10.980Z,100131.53
2023-05-21T16:44:39.639Z,100137.88
2023-05-21T16:47:08.550Z,100129.94
2023-05-21T16:49:37.128Z,100132.91
2023-05-21T16:52:05.919Z,100128.28
2023-05-21T16:54:34.865Z,100130.78
2023-05-21T16:57:04.540Z,100129.16
2023-05-21T16:59:33.109Z,100135.00
2023-05-21T17:02:01.706Z,100132.47
2023-05-21T17:04:30.564Z,100130.78
2023-05-21T17:06:59.195Z,100137.22
2023-05-21T17:09:27.781Z,100136.56
2023-05-21T17:11:56.368Z,100140.69
2023-05-21T17:14:34.296Z,100141.72
2023-05-21T17:17:03.628Z,100137.66
2023-05-21T17:19:32.387Z,100142.44
2023-05-21T17:22:01.087Z,100135.06
2023-05-21T17:24:29.628Z,100135.03
2023-05-21T17:26:57.971Z,100138.44
2023-05-21T17:29:27.630Z,100129.50
2023-05-21T17:31:56.151Z,100136.97
2023-05-21T17:34:29.246Z,100136.09
2023-05-21T17:36:58.925Z,100135.50
2023-05-21T17:39:27.770Z,100141.38
2023-05-21T17:41:57.143Z,100137.38
2023-05-21T17:44:27.142Z,100149.06
2023-05-21T17:46:56.363Z,100144.69
2023-05-21T17:49:25.169Z,100147.63
2023-05-21T17:51:54.703Z,100149.47
2023-05-21T17:54:23.306Z,100146.41
2023-05-21T17:56:52.011Z,100153.47
2023-05-21T17:59:21.200Z,100150.34
2023-05-21T18:01:50.879Z,100152.25
2023-05-21T18:04:19.680Z,100152.16
2023-05-21T18:06:48.277Z,100151.34
2023-05-21T18:09:16.844Z,100156.78
2023-05-21T18:11:45.414Z,100155.63
2023-05-21T18:14:13.991Z,100151.94
2023-05-21T18:16:42.484Z,100163.19
2023-05-21T18:19:12.237Z,100155.41
2023-05-21T18:21:40.814Z,100152.22
2023-05-21T18:24:09.593Z,100154.41
2023-05-21T18:26:38.168Z,100154.72
2023-05-21T18:29:06.863Z,100158.69
2023-05-21T18:31:35.494Z,100159.00
2023-05-21T18:34:04.182Z,100157.28
2023-05-21T18:36:38.657Z,100159.09
2023-05-21T18:39:08.227Z,100162.94
2023-05-21T18:41:37.275Z,100156.81
2023-05-21T18:44:06.885Z,100163.47
2023-05-21T18:46:35.365Z,100162.72
2023-05-21T18:49:03.741Z,100161.16
2023-05-21T18:51:33.672Z,100164.97
2023-05-21T18:54:01.988Z,100164.56
2023-05-21T18:56:30.799Z,100173.69
2023-05-21T18:58:59.329Z,100169.53
2023-05-21T19:01:28.034Z,100168.81
2023-05-21T19:03:56.689Z,100167.19
2023-05-21T19:06:27.631Z,100175.47
2023-05-21T19:08:57.279Z,100177.09
2023-05-21T19:11:30.944Z,100169.25
2023-05-21T19:14:00.509Z,100168.28
2023-05-21T19:16:29.063Z,100172.03
2023-05-21T19:18:57.768Z,100169.25
2023-05-21T19:21:26.413Z,100169.16
2023-05-21T19:23:56.405Z,100173.59
2023-05-21T19:26:25.209Z,100177.88
2023-05-21T19:28:54.626Z,100172.38
2023-05-21T19:31:25.165Z,100171.41
2023-05-21T19:33:54.019Z,100174.28
2023-05-21T19:36:22.670Z,100176.88
2023-05-21T19:38:51.753Z,100183.78
2023-05-21T19:41:22.595Z,100176.59
2023-05-21T19:43:51.493Z,100195.31
2023-05-21T19:46:20.645Z,100197.84
2023-05-21T19:48:49.585Z,100193.06
2023-05-21T19:51:18.237Z,100191.91
2023-05-21T19:53:46.833Z,100187.09
2023-05-21T19:56:15.522Z,100193.03
2023-05-21T19:58:47.911Z,100198.97
2023-05-21T20:01:17.339Z,100192.50
2023-05-21T20:03:46.032Z,100193.06
2023-05-21T20:06:16.899Z,100195.47
2023-05-21T20:08:45.676Z,100199.53
2023-05-21T20:11:14.387Z,100203.47
2023-05-21T20:13:48.469Z,100201.34
2023-05-21T20:16:18.202Z,100194.88
2023-05-21T20:18:47.249Z,100197.09
2023-05-21T20:21:17.437Z,100211.78
2023-05-21T20:23:46.155Z,100199.03
2023-05-21T20:26:14.883Z,100205.78
2023-05-21T20:28:44.679Z,100200.84
2023-05-21T20:31:13.301Z,100196.03
2023-05-21T20:33:41.851Z,100200.22
2023-05-21T20:36:11.042Z,100199.91
2023-05-21T20:38:42.023Z,100202.44
2023-05-21T20:41:10.776Z,100201.28
2023-05-21T20:43:39.125Z,100200.13
2023-05-21T20:46:08.789Z,100203.34
2023-05-21T20:48:37.852Z,100191.59
2023-05-21T20:51:06.832Z,100194.91
2023-05-21T20:53:35.110Z,100201.78
2023-05-21T20:56:08.172Z,100203.25
2023-05-21T20:58:36.943Z,100204.78
2023-05-21T21:01:05.493Z,100207.97
2023-05-21T21:03:35.296Z,100203.16
2023-05-21T21:06:04.307Z,100209.03
2023-05-21T21:08:34.585Z,100204.47
2023-05-21T21:11:03.161Z,100204.25
2023-05-21T21:13:31.769Z,100209.38
2023-05-21T21:16:00.358Z,100212.69
2023-05-21T21:18:29.176Z,100214.03
2023-05-21T21:21:06.575Z,100210.63
2023-05-21T21:23:35.217Z,100214.81
2023-05-21T21:29:25.599Z,100209.72
2023-05-21T21:31:53.938Z,100223.59
2023-05-21T21:34:23.445Z,100212.44
2023-05-21T21:36:53.080Z,100209.16
2023-05-21T21:39:21.630Z,100219.38
2023-05-21T21:41:49.882Z,100210.75
2023-05-21T21:44:18.486Z,100217.81
2023-05-21T21:46:47.023Z,100216.09
2023-05-21T21:49:17.178Z,100209.91
2023-05-21T21:51:45.904Z,100213.81
2023-05-21T21:54:15.544Z,100214.66
2023-05-21T21:56:44.078Z,100217.69
2023-05-21T21:59:12.650Z,100214.56
2023-05-21T22:01:41.005Z,100214.81
2023-05-21T22:04:09.718Z,100214.13
2023-05-21T22:06:38.964Z,100219.13
2023-05-21T22:09:07.861Z,100202.50
2023-05-21T22:11:37.515Z,100208.09
2023-05-21T22:14:06.333Z,100208.59
2023-05-21T22:16:34.923Z,100213.56
2023-05-21T22:19:03.513Z,100211.50
2023-05-21T22:21:33.027Z,100208.31
2023-05-21T22:24:01.801Z,100209.53
2023-05-21T22:26:30.004Z,100207.47
2023-05-21T22:28:59.938Z,100211.25
2023-05-21T22:31:28.717Z,100203.72
2023-05-21T22:33:57.353Z,100197.97
2023-05-21T22:36:25.663Z,100208.19
2023-05-21T22:38:54.243Z,100198.59
2023-05-21T22:41:22.872Z,100207.53
2023-05-21T22:43:52.226Z,100213.13
2023-05-21T22:46:21.890Z,100209.72
2023-05-21T22:48:50.145Z,100209.19
2023-05-21T22:51:18.739Z,100206.00
2023-05-21T22:53:47.176Z,100206.50
2023-05-21T22:56:15.706Z,100207.56
2023-05-21T22:58:45.109Z,100209.63
2023-05-21T23:01:13.555Z,100209.84
2023-05-21T23:03:43.131Z,100210.84
2023-05-21T23:06:12.537Z,100210.09
2023-05-21T23:08:41.090Z,100210.09
2023-05-21T23:11:09.739Z,100212.00
2023-05-21T23:13:38.323Z,100202.31
2023-05-21T23:16:07.706Z,100202.31
2023-05-21T23:18:36.535Z,100203.28
2023-05-21T23:21:06.706Z,100207.78
2023-05-21T23:23:34.977Z,100195.63
2023-05-21T23:26:03.437Z,100201.94
2023-05-21T23:28:31.833Z,100204.00
2023-05-21T23:31:00.131Z,100202.28
2023-05-21T23:33:28.840Z,100212.94
2023-05-21T23:35:57.398Z,100213.16
2023-05-21T23:38:27.015Z,100216.81
2023-05-21T23:40:55.573Z,100215.34
2023-05-21T23:43:23.812Z,100214.81
2023-05-21T23:45:52.071Z,100221.38
2023-05-21T23:48:20.755Z,100208.38
2023-05-21T23:50:49.453Z,100213.31
2023-05-21T23:53:19.509Z,100212.91
2023-05-21T23:55:49.106Z,100212.44
2023-05-21T23:58:17.780Z,100216.53
